weather info

by Jim Morgan

MAF: FLUVANNA,TX (XFVS) ASOS reports gust of 62.0 knots from NNW @ 2350Z
XFVS 172350Z 33039G62KT 29/02 A2979 RMK AO1 T02930020 RH 019%

Advertisements